Lenoir, North Carolina
Current Conditions -  °F | °C
As of 9:55 AM on Tuesday 21 Oct 2014 (Local Time) from KMRN Reporting Station
Scattered Clouds Scattered Clouds  
Wind Chill: 54°   Ceiling: Unl
Heat Index: 54°   Visibility: 10mi
Dew Point: 52°   Wind: 0mph
Humidity: 94%   Direction: NA
Pressure: 30.01"   Gusts: NA
Location:  35.92°N, 81.54°W
Report Text: KMRN 211355Z AUTO 00000KT 10SM SCT065 12/11 A3001 RMK AO2 T01210112
Loading
Personal Weather Stations






























Interactive Weather Map
Tropical Storm Tracking
New forecast layout! Learn more

10-Day Weather Forecast

Advertisements
Track Severe Weather on mobile